sensor_id;sensor_type;location;lat;lon;timestamp;temperature;humidity
12438;DHT22;6283;51.330;12.374;2023-03-02T00:01:17;2.90;1.00
12438;DHT22;6283;51.330;12.374;2023-03-02T00:03:43;2.60;1.00
12438;DHT22;6283;51.330;12.374;2023-03-02T00:06:09;2.60;1.00
12438;DHT22;6283;51.330;12.374;2023-03-02T00:08:37;2.80;1.00
12438;DHT22;6283;51.330;12.374;2023-03-02T00:11:03;2.70;1.00
12438;DHT22;6283;51.330;12.374;2023-03-02T00:13:29;2.60;1.00
12438;DHT22;6283;51.330;12.374;2023-03-02T00:15:55;2.30;1.00
12438;DHT22;6283;51.330;12.374;2023-03-02T00:18:21;2.30;1.00
12438;DHT22;6283;51.330;12.374;2023-03-02T00:20:46;2.60;1.00
12438;DHT22;6283;51.330;12.374;2023-03-02T00:23:12;2.20;1.00
12438;DHT22;6283;51.330;12.374;2023-03-02T00:25:39;2.40;1.00
12438;DHT22;6283;51.330;12.374;2023-03-02T00:28:04;2.30;1.00
12438;DHT22;6283;51.330;12.374;2023-03-02T00:30:30;2.40;1.00
12438;DHT22;6283;51.330;12.374;2023-03-02T00:32:55;2.40;1.00
12438;DHT22;6283;51.330;12.374;2023-03-02T00:35:23;2.40;1.00
12438;DHT22;6283;51.330;12.374;2023-03-02T00:37:51;2.30;1.00
12438;DHT22;6283;51.330;12.374;2023-03-02T00:40:17;2.30;1.00
12438;DHT22;6283;51.330;12.374;2023-03-02T00:42:42;2.10;1.00
12438;DHT22;6283;51.330;12.374;2023-03-02T00:45:09;2.50;1.00
12438;DHT22;6283;51.330;12.374;2023-03-02T00:47:35;2.30;1.00
12438;DHT22;6283;51.330;12.374;2023-03-02T00:50:02;2.10;1.00
12438;DHT22;6283;51.330;12.374;2023-03-02T00:52:29;2.10;1.00
12438;DHT22;6283;51.330;12.374;2023-03-02T00:54:55;2.20;1.00
12438;DHT22;6283;51.330;12.374;2023-03-02T00:57:21;2.30;1.00
12438;DHT22;6283;51.330;12.374;2023-03-02T00:59:46;2.10;1.00
12438;DHT22;6283;51.330;12.374;2023-03-02T01:02:12;2.10;1.00
12438;DHT22;6283;51.330;12.374;2023-03-02T01:04:40;2.00;1.00
12438;DHT22;6283;51.330;12.374;2023-03-02T01:07:12;2.00;1.00
12438;DHT22;6283;51.330;12.374;2023-03-02T01:09:41;2.10;1.00
12438;DHT22;6283;51.330;12.374;2023-03-02T01:12:07;1.80;1.00
12438;DHT22;6283;51.330;12.374;2023-03-02T01:14:40;2.10;1.00
12438;DHT22;6283;51.330;12.374;2023-03-02T01:17:06;2.00;1.00
12438;DHT22;6283;51.330;12.374;2023-03-02T01:19:32;2.10;1.00
12438;DHT22;6283;51.330;12.374;2023-03-02T01:21:58;1.80;1.00
12438;DHT22;6283;51.330;12.374;2023-03-02T01:24:24;1.80;1.00
12438;DHT22;6283;51.330;12.374;2023-03-02T01:26:49;1.80;1.00
12438;DHT22;6283;51.330;12.374;2023-03-02T01:29:15;1.60;1.00
12438;DHT22;6283;51.330;12.374;2023-03-02T01:31:40;1.80;1.00
12438;DHT22;6283;51.330;12.374;2023-03-02T01:34:06;1.60;1.00
12438;DHT22;6283;51.330;12.374;2023-03-02T01:36:32;2.00;1.00
12438;DHT22;6283;51.330;12.374;2023-03-02T01:38:57;1.60;1.00
12438;DHT22;6283;51.330;12.374;2023-03-02T01:41:23;1.60;1.00
12438;DHT22;6283;51.330;12.374;2023-03-02T01:43:49;1.90;1.00
12438;DHT22;6283;51.330;12.374;2023-03-02T01:46:24;1.70;1.00
12438;DHT22;6283;51.330;12.374;2023-03-02T01:51:22;1.70;1.00
12438;DHT22;6283;51.330;12.374;2023-03-02T01:53:51;1.60;1.00
12438;DHT22;6283;51.330;12.374;2023-03-02T01:56:22;1.50;1.00
12438;DHT22;6283;51.330;12.374;2023-03-02T01:58:52;1.70;1.00
12438;DHT22;6283;51.330;12.374;2023-03-02T02:01:18;1.50;1.00
12438;DHT22;6283;51.330;12.374;2023-03-02T02:03:47;1.60;1.00
12438;DHT22;6283;51.330;12.374;2023-03-02T02:06:27;1.50;1.00
12438;DHT22;6283;51.330;12.374;2023-03-02T02:08:56;1.70;1.00
12438;DHT22;6283;51.330;12.374;2023-03-02T02:11:23;1.60;1.00
12438;DHT22;6283;51.330;12.374;2023-03-02T02:13:54;1.70;1.00
12438;DHT22;6283;51.330;12.374;2023-03-02T02:16:21;1.50;1.00
12438;DHT22;6283;51.330;12.374;2023-03-02T02:18:46;1.40;1.00
12438;DHT22;6283;51.330;12.374;2023-03-02T02:21:12;1.60;1.00
12438;DHT22;6283;51.330;12.374;2023-03-02T02:23:44;1.30;1.00
12438;DHT22;6283;51.330;12.374;2023-03-02T02:26:19;1.30;1.00
12438;DHT22;6283;51.330;12.374;2023-03-02T02:31:22;1.40;1.00
12438;DHT22;6283;51.330;12.374;2023-03-02T02:33:55;1.50;1.00
12438;DHT22;6283;51.330;12.374;2023-03-02T02:36:26;1.30;1.00
12438;DHT22;6283;51.330;12.374;2023-03-02T02:38:59;1.10;1.00
12438;DHT22;6283;51.330;12.374;2023-03-02T02:41:30;1.10;1.00
12438;DHT22;6283;51.330;12.374;2023-03-02T02:43:58;1.30;1.00
12438;DHT22;6283;51.330;12.374;2023-03-02T02:46:24;1.20;1.00
12438;DHT22;6283;51.330;12.374;2023-03-02T02:48:51;1.10;1.00
12438;DHT22;6283;51.330;12.374;2023-03-02T02:51:25;1.00;1.00
12438;DHT22;6283;51.330;12.374;2023-03-02T02:56:31;1.30;1.00
12438;DHT22;6283;51.330;12.374;2023-03-02T02:59:04;1.00;1.00
12438;DHT22;6283;51.330;12.374;2023-03-02T03:01:32;1.20;1.00
12438;DHT22;6283;51.330;12.374;2023-03-02T03:04:01;1.10;1.00
12438;DHT22;6283;51.330;12.374;2023-03-02T03:06:29;1.00;1.00
12438;DHT22;6283;51.330;12.374;2023-03-02T03:09:05;1.00;1.00
12438;DHT22;6283;51.330;12.374;2023-03-02T03:11:33;1.00;1.00
12438;DHT22;6283;51.330;12.374;2023-03-02T03:16:32;1.00;1.00
12438;DHT22;6283;51.330;12.374;2023-03-02T03:19:05;1.00;1.00
12438;DHT22;6283;51.330;12.374;2023-03-02T03:21:34;0.90;1.00
12438;DHT22;6283;51.330;12.374;2023-03-02T03:24:00;0.90;1.00
12438;DHT22;6283;51.330;12.374;2023-03-02T03:26:26;1.20;1.00
12438;DHT22;6283;51.330;12.374;2023-03-02T03:28:52;0.90;1.00
12438;DHT22;6283;51.330;12.374;2023-03-02T03:31:22;0.90;1.00
12438;DHT22;6283;51.330;12.374;2023-03-02T03:33:48;0.90;1.00
12438;DHT22;6283;51.330;12.374;2023-03-02T03:36:14;1.10;1.00
12438;DHT22;6283;51.330;12.374;2023-03-02T03:38:39;1.00;1.00
12438;DHT22;6283;51.330;12.374;2023-03-02T03:41:05;1.00;1.00
12438;DHT22;6283;51.330;12.374;2023-03-02T03:43:30;0.90;1.00
12438;DHT22;6283;51.330;12.374;2023-03-02T03:45:56;1.00;1.00
12438;DHT22;6283;51.330;12.374;2023-03-02T03:48:22;0.80;1.00
12438;DHT22;6283;51.330;12.374;2023-03-02T03:50:48;0.80;1.00
12438;DHT22;6283;51.330;12.374;2023-03-02T03:53:13;0.70;1.00
12438;DHT22;6283;51.330;12.374;2023-03-02T03:55:39;0.90;1.00
12438;DHT22;6283;51.330;12.374;2023-03-02T03:58:04;0.80;1.00
12438;DHT22;6283;51.330;12.374;2023-03-02T04:00:30;0.80;1.00
12438;DHT22;6283;51.330;12.374;2023-03-02T04:02:56;0.80;1.00
12438;DHT22;6283;51.330;12.374;2023-03-02T04:05:21;0.70;1.00
12438;DHT22;6283;51.330;12.374;2023-03-02T04:07:47;0.70;1.00
12438;DHT22;6283;51.330;12.374;2023-03-02T04:10:13;0.90;1.00
12438;DHT22;6283;51.330;12.374;2023-03-02T04:12:39;0.70;1.00
12438;DHT22;6283;51.330;12.374;2023-03-02T04:15:07;0.70;1.00
12438;DHT22;6283;51.330;12.374;2023-03-02T04:17:33;0.70;1.00
12438;DHT22;6283;51.330;12.374;2023-03-02T04:19:59;0.70;1.00
12438;DHT22;6283;51.330;12.374;2023-03-02T04:22:25;0.90;1.00
12438;DHT22;6283;51.330;12.374;2023-03-02T04:24:51;1.00;1.00
12438;DHT22;6283;51.330;12.374;2023-03-02T04:27:17;0.70;1.00
12438;DHT22;6283;51.330;12.374;2023-03-02T04:29:43;0.80;1.00
12438;DHT22;6283;51.330;12.374;2023-03-02T04:32:09;0.80;1.00
12438;DHT22;6283;51.330;12.374;2023-03-02T04:34:35;0.60;1.00
12438;DHT22;6283;51.330;12.374;2023-03-02T04:37:01;0.60;1.00
12438;DHT22;6283;51.330;12.374;2023-03-02T04:39:27;0.60;1.00
12438;DHT22;6283;51.330;12.374;2023-03-02T04:41:53;0.60;1.00
12438;DHT22;6283;51.330;12.374;2023-03-02T04:44:19;0.70;1.00
12438;DHT22;6283;51.330;12.374;2023-03-02T04:46:46;0.60;1.00
12438;DHT22;6283;51.330;12.374;2023-03-02T04:49:14;0.50;1.00
12438;DHT22;6283;51.330;12.374;2023-03-02T04:51:42;0.50;1.00
12438;DHT22;6283;51.330;12.374;2023-03-02T04:54:28;0.70;1.00
12438;DHT22;6283;51.330;12.374;2023-03-02T04:56:55;0.60;1.00
12438;DHT22;6283;51.330;12.374;2023-03-02T04:59:24;0.50;1.00
12438;DHT22;6283;51.330;12.374;2023-03-02T05:01:51;0.60;1.00
12438;DHT22;6283;51.330;12.374;2023-03-02T05:04:17;0.50;1.00
12438;DHT22;6283;51.330;12.374;2023-03-02T05:06:43;0.40;1.00
12438;DHT22;6283;51.330;12.374;2023-03-02T05:09:09;0.60;1.00
12438;DHT22;6283;51.330;12.374;2023-03-02T05:11:35;0.40;1.00
12438;DHT22;6283;51.330;12.374;2023-03-02T05:14:04;0.60;1.00
12438;DHT22;6283;51.330;12.374;2023-03-02T05:16:31;0.50;1.00
12438;DHT22;6283;51.330;12.374;2023-03-02T05:18:58;0.40;1.00
12438;DHT22;6283;51.330;12.374;2023-03-02T05:21:24;0.60;1.00
12438;DHT22;6283;51.330;12.374;2023-03-02T05:23:50;0.50;1.00
12438;DHT22;6283;51.330;12.374;2023-03-02T05:26:16;0.40;1.00
12438;DHT22;6283;51.330;12.374;2023-03-02T05:28:43;0.50;1.00
12438;DHT22;6283;51.330;12.374;2023-03-02T05:31:12;0.30;1.00
12438;DHT22;6283;51.330;12.374;2023-03-02T05:33:38;0.50;1.00
12438;DHT22;6283;51.330;12.374;2023-03-02T05:36:04;0.30;1.00
12438;DHT22;6283;51.330;12.374;2023-03-02T05:38:30;0.40;1.00
12438;DHT22;6283;51.330;12.374;2023-03-02T05:40:56;0.40;1.00
12438;DHT22;6283;51.330;12.374;2023-03-02T05:43:21;0.40;1.00
12438;DHT22;6283;51.330;12.374;2023-03-02T05:45:47;0.40;1.00
12438;DHT22;6283;51.330;12.374;2023-03-02T05:48:13;0.30;1.00
12438;DHT22;6283;51.330;12.374;2023-03-02T05:50:39;0.30;1.00
12438;DHT22;6283;51.330;12.374;2023-03-02T05:53:05;0.40;1.00
12438;DHT22;6283;51.330;12.374;2023-03-02T05:55:31;0.30;1.00
12438;DHT22;6283;51.330;12.374;2023-03-02T05:58:02;0.40;1.00
12438;DHT22;6283;51.330;12.374;2023-03-02T06:00:28;0.10;1.00
12438;DHT22;6283;51.330;12.374;2023-03-02T06:02:55;0.20;1.00
12438;DHT22;6283;51.330;12.374;2023-03-02T06:05:20;0.40;1.00
12438;DHT22;6283;51.330;12.374;2023-03-02T06:07:47;0.40;1.00
12438;DHT22;6283;51.330;12.374;2023-03-02T06:10:13;0.40;1.00
12438;DHT22;6283;51.330;12.374;2023-03-02T06:12:39;0.60;1.00
12438;DHT22;6283;51.330;12.374;2023-03-02T06:15:05;0.30;1.00
12438;DHT22;6283;51.330;12.374;2023-03-02T06:17:32;0.60;1.00
12438;DHT22;6283;51.330;12.374;2023-03-02T06:19:57;0.50;1.00
12438;DHT22;6283;51.330;12.374;2023-03-02T06:22:23;0.40;1.00
12438;DHT22;6283;51.330;12.374;2023-03-02T06:24:49;0.40;1.00
12438;DHT22;6283;51.330;12.374;2023-03-02T06:27:14;0.60;1.00
12438;DHT22;6283;51.330;12.374;2023-03-02T06:29:40;0.50;1.00
12438;DHT22;6283;51.330;12.374;2023-03-02T06:32:06;0.50;1.00
12438;DHT22;6283;51.330;12.374;2023-03-02T06:34:31;0.40;1.00
12438;DHT22;6283;51.330;12.374;2023-03-02T06:36:57;0.70;1.00
12438;DHT22;6283;51.330;12.374;2023-03-02T06:39:23;0.50;1.00
12438;DHT22;6283;51.330;12.374;2023-03-02T06:41:49;0.50;1.00
12438;DHT22;6283;51.330;12.374;2023-03-02T06:44:16;0.50;1.00
12438;DHT22;6283;51.330;12.374;2023-03-02T06:46:43;0.40;1.00
12438;DHT22;6283;51.330;12.374;2023-03-02T06:49:10;0.60;1.00
12438;DHT22;6283;51.330;12.374;2023-03-02T06:51:36;0.60;1.00
12438;DHT22;6283;51.330;12.374;2023-03-02T06:54:03;0.60;1.00
12438;DHT22;6283;51.330;12.374;2023-03-02T06:56:30;0.70;1.00
12438;DHT22;6283;51.330;12.374;2023-03-02T06:58:56;0.80;1.00
12438;DHT22;6283;51.330;12.374;2023-03-02T07:01:21;0.80;1.00
12438;DHT22;6283;51.330;12.374;2023-03-02T07:03:47;0.70;1.00
12438;DHT22;6283;51.330;12.374;2023-03-02T07:06:13;0.80;1.00
12438;DHT22;6283;51.330;12.374;2023-03-02T07:08:39;0.70;1.00
12438;DHT22;6283;51.330;12.374;2023-03-02T07:11:10;0.70;1.00
12438;DHT22;6283;51.330;12.374;2023-03-02T07:13:37;1.00;1.00
12438;DHT22;6283;51.330;12.374;2023-03-02T07:16:08;1.00;1.00
12438;DHT22;6283;51.330;12.374;2023-03-02T07:18:34;1.10;1.00
12438;DHT22;6283;51.330;12.374;2023-03-02T07:20:59;0.90;1.00
12438;DHT22;6283;51.330;12.374;2023-03-02T07:23:25;0.90;1.00
12438;DHT22;6283;51.330;12.374;2023-03-02T07:25:51;1.30;1.00
12438;DHT22;6283;51.330;12.374;2023-03-02T07:28:16;1.20;1.00
12438;DHT22;6283;51.330;12.374;2023-03-02T07:30:42;1.60;1.00
12438;DHT22;6283;51.330;12.374;2023-03-02T07:33:07;1.50;1.00
12438;DHT22;6283;51.330;12.374;2023-03-02T07:35:33;1.70;1.00
12438;DHT22;6283;51.330;12.374;2023-03-02T07:37:59;1.40;1.00
12438;DHT22;6283;51.330;12.374;2023-03-02T07:40:24;1.80;1.00
12438;DHT22;6283;51.330;12.374;2023-03-02T07:42:50;1.70;1.00
12438;DHT22;6283;51.330;12.374;2023-03-02T07:45:15;1.80;1.00
12438;DHT22;6283;51.330;12.374;2023-03-02T07:47:44;2.00;1.00
12438;DHT22;6283;51.330;12.374;2023-03-02T07:50:10;2.20;1.00
12438;DHT22;6283;51.330;12.374;2023-03-02T07:52:37;1.90;1.00
12438;DHT22;6283;51.330;12.374;2023-03-02T07:55:03;2.20;1.00
12438;DHT22;6283;51.330;12.374;2023-03-02T07:57:28;2.10;1.00
12438;DHT22;6283;51.330;12.374;2023-03-02T07:59:54;1.90;1.00
12438;DHT22;6283;51.330;12.374;2023-03-02T08:02:20;1.80;1.00
12438;DHT22;6283;51.330;12.374;2023-03-02T08:04:47;2.20;1.00
12438;DHT22;6283;51.330;12.374;2023-03-02T08:07:13;1.90;1.00
12438;DHT22;6283;51.330;12.374;2023-03-02T08:09:38;2.00;1.00
12438;DHT22;6283;51.330;12.374;2023-03-02T08:12:04;2.40;1.00
12438;DHT22;6283;51.330;12.374;2023-03-02T08:14:30;2.40;1.00
12438;DHT22;6283;51.330;12.374;2023-03-02T08:16:56;2.30;1.00
12438;DHT22;6283;51.330;12.374;2023-03-02T08:19:21;2.40;1.00
12438;DHT22;6283;51.330;12.374;2023-03-02T08:21:47;2.60;1.00
12438;DHT22;6283;51.330;12.374;2023-03-02T08:24:12;2.60;1.00
12438;DHT22;6283;51.330;12.374;2023-03-02T08:26:38;2.60;1.00
12438;DHT22;6283;51.330;12.374;2023-03-02T08:29:05;2.90;1.00
12438;DHT22;6283;51.330;12.374;2023-03-02T08:31:31;2.80;1.00
12438;DHT22;6283;51.330;12.374;2023-03-02T08:33:57;3.10;1.00
12438;DHT22;6283;51.330;12.374;2023-03-02T08:36:24;3.20;1.00
12438;DHT22;6283;51.330;12.374;2023-03-02T08:38:50;3.30;1.00
12438;DHT22;6283;51.330;12.374;2023-03-02T08:41:18;3.40;1.00
12438;DHT22;6283;51.330;12.374;2023-03-02T08:43:44;3.20;1.00
12438;DHT22;6283;51.330;12.374;2023-03-02T08:46:12;3.70;1.00
12438;DHT22;6283;51.330;12.374;2023-03-02T08:48:37;3.70;1.00
12438;DHT22;6283;51.330;12.374;2023-03-02T08:51:06;3.70;1.00
12438;DHT22;6283;51.330;12.374;2023-03-02T08:53:35;3.90;1.00
12438;DHT22;6283;51.330;12.374;2023-03-02T08:56:01;3.90;1.00
12438;DHT22;6283;51.330;12.374;2023-03-02T08:58:27;3.80;1.00
12438;DHT22;6283;51.330;12.374;2023-03-02T09:00:53;4.10;1.00
12438;DHT22;6283;51.330;12.374;2023-03-02T09:03:18;4.10;1.00
12438;DHT22;6283;51.330;12.374;2023-03-02T09:05:44;4.20;1.00
12438;DHT22;6283;51.330;12.374;2023-03-02T09:08:10;4.40;1.00
12438;DHT22;6283;51.330;12.374;2023-03-02T09:10:37;4.30;1.00
12438;DHT22;6283;51.330;12.374;2023-03-02T09:13:03;4.80;1.00
12438;DHT22;6283;51.330;12.374;2023-03-02T09:15:29;4.80;1.00
12438;DHT22;6283;51.330;12.374;2023-03-02T09:17:55;4.80;1.00
12438;DHT22;6283;51.330;12.374;2023-03-02T09:20:20;4.90;1.00
12438;DHT22;6283;51.330;12.374;2023-03-02T09:22:46;4.90;1.00
12438;DHT22;6283;51.330;12.374;2023-03-02T09:25:18;5.00;1.00
12438;DHT22;6283;51.330;12.374;2023-03-02T09:27:45;5.10;1.00
12438;DHT22;6283;51.330;12.374;2023-03-02T09:30:12;5.20;1.00
12438;DHT22;6283;51.330;12.374;2023-03-02T09:32:39;5.20;1.00
12438;DHT22;6283;51.330;12.374;2023-03-02T09:35:05;5.40;1.00
12438;DHT22;6283;51.330;12.374;2023-03-02T09:37:31;5.40;1.00
12438;DHT22;6283;51.330;12.374;2023-03-02T09:39:56;5.70;1.00
12438;DHT22;6283;51.330;12.374;2023-03-02T09:42:31;5.70;1.00
12438;DHT22;6283;51.330;12.374;2023-03-02T09:45:23;5.50;1.00
12438;DHT22;6283;51.330;12.374;2023-03-02T09:48:39;6.00;1.00
12438;DHT22;6283;51.330;12.374;2023-03-02T09:50:57;5.90;1.00
12438;DHT22;6283;51.330;12.374;2023-03-02T09:53:40;5.90;1.00
12438;DHT22;6283;51.330;12.374;2023-03-02T09:56:16;6.10;1.00
12438;DHT22;6283;51.330;12.374;2023-03-02T09:59:22;6.10;1.00
12438;DHT22;6283;51.330;12.374;2023-03-02T10:01:42;6.10;1.00
12438;DHT22;6283;51.330;12.374;2023-03-02T10:04:28;5.90;1.00
12438;DHT22;6283;51.330;12.374;2023-03-02T10:07:44;6.00;1.00
12438;DHT22;6283;51.330;12.374;2023-03-02T10:09:45;6.00;1.00
12438;DHT22;6283;51.330;12.374;2023-03-02T10:12:39;6.10;1.00
12438;DHT22;6283;51.330;12.374;2023-03-02T10:15:16;6.30;1.00
12438;DHT22;6283;51.330;12.374;2023-03-02T10:25:47;6.30;1.00
12438;DHT22;6283;51.330;12.374;2023-03-02T10:28:19;6.40;1.00
12438;DHT22;6283;51.330;12.374;2023-03-02T10:31:08;6.60;1.00
12438;DHT22;6283;51.330;12.374;2023-03-02T10:33:36;6.60;1.00
12438;DHT22;6283;51.330;12.374;2023-03-02T10:36:06;6.60;1.00
12438;DHT22;6283;51.330;12.374;2023-03-02T10:38:37;6.70;1.00
12438;DHT22;6283;51.330;12.374;2023-03-02T10:41:04;6.80;1.00
12438;DHT22;6283;51.330;12.374;2023-03-02T10:43:44;6.90;1.00
12438;DHT22;6283;51.330;12.374;2023-03-02T10:46:12;6.80;1.00
12438;DHT22;6283;51.330;12.374;2023-03-02T10:48:57;6.90;1.00
12438;DHT22;6283;51.330;12.374;2023-03-02T10:51:31;7.00;1.00
12438;DHT22;6283;51.330;12.374;2023-03-02T10:56:32;7.00;1.00
12438;DHT22;6283;51.330;12.374;2023-03-02T10:58:58;7.10;1.00
12438;DHT22;6283;51.330;12.374;2023-03-02T11:01:29;7.20;1.00
12438;DHT22;6283;51.330;12.374;2023-03-02T11:03:56;7.50;1.00
12438;DHT22;6283;51.330;12.374;2023-03-02T11:06:22;7.40;1.00
12438;DHT22;6283;51.330;12.374;2023-03-02T11:09:05;7.40;1.00
12438;DHT22;6283;51.330;12.374;2023-03-02T11:11:32;7.60;1.00
12438;DHT22;6283;51.330;12.374;2023-03-02T11:14:15;7.70;1.00
12438;DHT22;6283;51.330;12.374;2023-03-02T11:16:40;7.50;1.00
12438;DHT22;6283;51.330;12.374;2023-03-02T11:19:12;7.70;1.00
12438;DHT22;6283;51.330;12.374;2023-03-02T11:21:51;7.80;1.00
12438;DHT22;6283;51.330;12.374;2023-03-02T11:24:33;7.70;1.00
12438;DHT22;6283;51.330;12.374;2023-03-02T11:30:03;7.90;1.00
12438;DHT22;6283;51.330;12.374;2023-03-02T11:38:31;8.40;1.00
12438;DHT22;6283;51.330;12.374;2023-03-02T11:43:53;9.00;1.00
12438;DHT22;6283;51.330;12.374;2023-03-02T11:46:24;8.90;1.00
12438;DHT22;6283;51.330;12.374;2023-03-02T11:48:53;9.00;1.00
12438;DHT22;6283;51.330;12.374;2023-03-02T11:51:32;9.00;1.00
12438;DHT22;6283;51.330;12.374;2023-03-02T11:56:40;9.50;1.00
12438;DHT22;6283;51.330;12.374;2023-03-02T11:59:16;9.70;1.00
12438;DHT22;6283;51.330;12.374;2023-03-02T12:01:47;9.90;1.00
12438;DHT22;6283;51.330;12.374;2023-03-02T12:04:33;10.40;1.00
12438;DHT22;6283;51.330;12.374;2023-03-02T12:07:02;10.40;1.00
12438;DHT22;6283;51.330;12.374;2023-03-02T12:09:36;10.70;1.00
12438;DHT22;6283;51.330;12.374;2023-03-02T12:14:46;11.20;1.00
12438;DHT22;6283;51.330;12.374;2023-03-02T12:19:52;11.80;1.00
12438;DHT22;6283;51.330;12.374;2023-03-02T12:22:27;12.00;1.00
12438;DHT22;6283;51.330;12.374;2023-03-02T12:27:34;12.50;1.00
12438;DHT22;6283;51.330;12.374;2023-03-02T12:35:30;12.90;1.00
12438;DHT22;6283;51.330;12.374;2023-03-02T12:38:05;13.30;1.00
12438;DHT22;6283;51.330;12.374;2023-03-02T12:43:33;13.30;1.00
12438;DHT22;6283;51.330;12.374;2023-03-02T12:51:14;13.90;1.00
12438;DHT22;6283;51.330;12.374;2023-03-02T12:53:41;14.10;1.00
12438;DHT22;6283;51.330;12.374;2023-03-02T12:56:07;14.20;1.00
12438;DHT22;6283;51.330;12.374;2023-03-02T12:58:33;14.40;1.00
12438;DHT22;6283;51.330;12.374;2023-03-02T13:01:01;14.50;1.00
12438;DHT22;6283;51.330;12.374;2023-03-02T13:03:29;14.60;1.00
12438;DHT22;6283;51.330;12.374;2023-03-02T13:06:03;14.80;1.00
12438;DHT22;6283;51.330;12.374;2023-03-02T13:08:35;14.60;1.00
12438;DHT22;6283;51.330;12.374;2023-03-02T13:11:01;14.60;1.00
12438;DHT22;6283;51.330;12.374;2023-03-02T13:13:33;14.70;1.00
12438;DHT22;6283;51.330;12.374;2023-03-02T13:16:04;14.80;1.00
12438;DHT22;6283;51.330;12.374;2023-03-02T13:18:32;14.80;1.00
12438;DHT22;6283;51.330;12.374;2023-03-02T13:21:00;14.80;1.00
12438;DHT22;6283;51.330;12.374;2023-03-02T13:23:28;14.90;1.00
12438;DHT22;6283;51.330;12.374;2023-03-02T13:30:55;15.40;1.00
12438;DHT22;6283;51.330;12.374;2023-03-02T13:33:22;15.40;1.00
12438;DHT22;6283;51.330;12.374;2023-03-02T13:35:48;15.50;1.00
12438;DHT22;6283;51.330;12.374;2023-03-02T13:38:17;15.50;1.00
12438;DHT22;6283;51.330;12.374;2023-03-02T13:40:48;15.60;1.00
12438;DHT22;6283;51.330;12.374;2023-03-02T13:46:04;15.70;1.00
12438;DHT22;6283;51.330;12.374;2023-03-02T13:48:31;15.80;1.00
12438;DHT22;6283;51.330;12.374;2023-03-02T13:51:23;15.90;1.00
12438;DHT22;6283;51.330;12.374;2023-03-02T13:53:56;16.00;1.00
12438;DHT22;6283;51.330;12.374;2023-03-02T13:56:30;16.00;1.00
12438;DHT22;6283;51.330;12.374;2023-03-02T13:58:57;16.10;1.00
12438;DHT22;6283;51.330;12.374;2023-03-02T14:01:23;16.20;1.00
12438;DHT22;6283;51.330;12.374;2023-03-02T14:03:48;16.30;1.00
12438;DHT22;6283;51.330;12.374;2023-03-02T14:06:14;16.50;1.00
12438;DHT22;6283;51.330;12.374;2023-03-02T14:08:43;16.60;1.00
12438;DHT22;6283;51.330;12.374;2023-03-02T14:11:10;16.70;1.00
12438;DHT22;6283;51.330;12.374;2023-03-02T14:13:51;16.70;1.00
12438;DHT22;6283;51.330;12.374;2023-03-02T14:16:17;16.80;1.00
12438;DHT22;6283;51.330;12.374;2023-03-02T14:18:45;16.70;1.00
12438;DHT22;6283;51.330;12.374;2023-03-02T14:21:17;16.80;1.00
12438;DHT22;6283;51.330;12.374;2023-03-02T14:23:44;16.80;1.00
12438;DHT22;6283;51.330;12.374;2023-03-02T14:28:44;17.00;1.00
12438;DHT22;6283;51.330;12.374;2023-03-02T14:31:09;17.10;1.00
12438;DHT22;6283;51.330;12.374;2023-03-02T14:33:36;17.20;1.00
12438;DHT22;6283;51.330;12.374;2023-03-02T14:36:03;17.30;1.00
12438;DHT22;6283;51.330;12.374;2023-03-02T14:38:30;17.30;1.00
12438;DHT22;6283;51.330;12.374;2023-03-02T14:40:56;17.40;1.00
12438;DHT22;6283;51.330;12.374;2023-03-02T14:43:22;17.30;1.00
12438;DHT22;6283;51.330;12.374;2023-03-02T14:45:50;17.40;1.00
12438;DHT22;6283;51.330;12.374;2023-03-02T14:48:16;17.50;1.00
12438;DHT22;6283;51.330;12.374;2023-03-02T14:50:45;17.60;1.00
12438;DHT22;6283;51.330;12.374;2023-03-02T14:53:18;17.60;1.00
12438;DHT22;6283;51.330;12.374;2023-03-02T14:55:45;17.70;1.00
12438;DHT22;6283;51.330;12.374;2023-03-02T14:58:16;18.00;1.00
12438;DHT22;6283;51.330;12.374;2023-03-02T15:00:44;18.10;1.00
12438;DHT22;6283;51.330;12.374;2023-03-02T15:03:15;18.30;1.00
12438;DHT22;6283;51.330;12.374;2023-03-02T15:05:43;18.30;1.00
12438;DHT22;6283;51.330;12.374;2023-03-02T15:08:13;18.30;1.00
12438;DHT22;6283;51.330;12.374;2023-03-02T15:10:40;18.30;1.00
12438;DHT22;6283;51.330;12.374;2023-03-02T15:13:10;18.20;1.00
12438;DHT22;6283;51.330;12.374;2023-03-02T15:15:36;18.30;1.00
12438;DHT22;6283;51.330;12.374;2023-03-02T15:18:02;18.40;1.00
12438;DHT22;6283;51.330;12.374;2023-03-02T15:20:28;18.50;1.00
12438;DHT22;6283;51.330;12.374;2023-03-02T15:22:54;18.70;1.00
12438;DHT22;6283;51.330;12.374;2023-03-02T15:25:20;18.80;1.00
12438;DHT22;6283;51.330;12.374;2023-03-02T15:27:48;18.80;1.00
12438;DHT22;6283;51.330;12.374;2023-03-02T15:30:14;18.90;1.00
12438;DHT22;6283;51.330;12.374;2023-03-02T15:32:40;18.90;1.00
12438;DHT22;6283;51.330;12.374;2023-03-02T15:35:06;18.80;1.00
12438;DHT22;6283;51.330;12.374;2023-03-02T15:37:32;18.70;1.00
12438;DHT22;6283;51.330;12.374;2023-03-02T15:39:58;18.70;1.00
12438;DHT22;6283;51.330;12.374;2023-03-02T15:42:23;18.70;1.00
12438;DHT22;6283;51.330;12.374;2023-03-02T15:44:49;18.60;1.00
12438;DHT22;6283;51.330;12.374;2023-03-02T15:47:15;18.40;1.00
12438;DHT22;6283;51.330;12.374;2023-03-02T15:49:40;18.40;1.00
12438;DHT22;6283;51.330;12.374;2023-03-02T15:52:06;18.50;1.00
12438;DHT22;6283;51.330;12.374;2023-03-02T15:54:31;18.50;1.00
12438;DHT22;6283;51.330;12.374;2023-03-02T15:56:57;18.40;1.00
12438;DHT22;6283;51.330;12.374;2023-03-02T15:59:28;18.40;1.00
12438;DHT22;6283;51.330;12.374;2023-03-02T16:01:54;18.30;1.00
12438;DHT22;6283;51.330;12.374;2023-03-02T16:04:31;18.10;1.00
12438;DHT22;6283;51.330;12.374;2023-03-02T16:06:57;17.90;1.00
12438;DHT22;6283;51.330;12.374;2023-03-02T16:09:24;17.80;1.00
12438;DHT22;6283;51.330;12.374;2023-03-02T16:11:50;17.60;1.00
12438;DHT22;6283;51.330;12.374;2023-03-02T16:14:16;17.50;1.00
12438;DHT22;6283;51.330;12.374;2023-03-02T16:16:43;17.30;1.00
12438;DHT22;6283;51.330;12.374;2023-03-02T16:19:11;17.10;1.00
12438;DHT22;6283;51.330;12.374;2023-03-02T16:21:37;16.80;1.00
12438;DHT22;6283;51.330;12.374;2023-03-02T16:24:04;16.60;1.00
12438;DHT22;6283;51.330;12.374;2023-03-02T16:26:34;16.40;1.00
12438;DHT22;6283;51.330;12.374;2023-03-02T16:29:01;16.30;1.00
12438;DHT22;6283;51.330;12.374;2023-03-02T16:31:27;16.20;1.00
12438;DHT22;6283;51.330;12.374;2023-03-02T16:33:57;16.10;1.00
12438;DHT22;6283;51.330;12.374;2023-03-02T16:36:23;16.00;1.00
12438;DHT22;6283;51.330;12.374;2023-03-02T16:38:49;15.70;1.00
12438;DHT22;6283;51.330;12.374;2023-03-02T16:41:20;15.30;1.00
12438;DHT22;6283;51.330;12.374;2023-03-02T16:43:49;14.90;1.00
12438;DHT22;6283;51.330;12.374;2023-03-02T16:46:16;14.40;1.00
12438;DHT22;6283;51.330;12.374;2023-03-02T16:48:42;13.90;1.00
12438;DHT22;6283;51.330;12.374;2023-03-02T16:51:08;13.70;1.00
12438;DHT22;6283;51.330;12.374;2023-03-02T16:53:34;13.20;1.00
12438;DHT22;6283;51.330;12.374;2023-03-02T16:56:00;13.00;1.00
12438;DHT22;6283;51.330;12.374;2023-03-02T16:58:26;12.80;1.00
12438;DHT22;6283;51.330;12.374;2023-03-02T17:00:52;12.40;1.00
12438;DHT22;6283;51.330;12.374;2023-03-02T17:03:17;12.30;1.00
12438;DHT22;6283;51.330;12.374;2023-03-02T17:05:43;11.90;1.00
12438;DHT22;6283;51.330;12.374;2023-03-02T17:08:10;11.70;1.00
12438;DHT22;6283;51.330;12.374;2023-03-02T17:10:36;11.30;1.00